Langham, Canada
Current Conditions -  °F | °C
As of 2:00 PM on Thursday 29 Jan 2015 (Local Time) from CYXE Reporting Station
Light Snow Light Snow  
Wind Chill:   Ceiling: 1200
Heat Index: 12°   Visibility: 15mi
Dew Point:   Wind: 6mph
Humidity: 79%   Direction: 130°SE
Pressure: 30.44"   Gusts: NA
Location:  52.36°N, 106.96°W
Report Text: CYXE 292000Z 13005KT 15SM -SN OVC012 M11/M14 A3044 RMK SC8 SLP350
Loading
Personal Weather Stations






























Interactive Weather Map New forecast layout! Learn more

10-Day Weather Forecast

Advertisements
Track Severe Weather on mobile